createdAt,value
2018-04-15T00:00:12.346Z,10.31
2018-04-15T00:01:12.314Z,10.29
2018-04-15T00:02:12.290Z,10.35
2018-04-15T00:03:12.258Z,10.26
2018-04-15T00:04:13.117Z,10.23
2018-04-15T00:05:12.203Z,10.29
2018-04-15T00:06:12.186Z,10.21
2018-04-15T00:07:12.191Z,10.32
2018-04-15T00:08:12.121Z,10.23
2018-04-15T00:09:12.096Z,10.23
2018-04-15T00:10:12.064Z,10.20
2018-04-15T00:11:12.044Z,10.18
2018-04-15T00:12:12.046Z,10.17
2018-04-15T00:13:11.990Z,10.18
2018-04-15T00:14:11.952Z,10.05
2018-04-15T00:15:11.922Z,10.05
2018-04-15T00:16:11.915Z,10.08
2018-04-15T00:17:11.905Z,10.10
2018-04-15T00:18:11.887Z,10.13
2018-04-15T00:19:11.816Z,10.02
2018-04-15T00:20:11.787Z,9.99
2018-04-15T00:21:11.755Z,10.07
2018-04-15T00:22:11.732Z,10.00
2018-04-15T00:23:11.739Z,9.99
2018-04-15T00:24:11.711Z,10.00
2018-04-15T00:25:11.684Z,9.96
2018-04-15T00:26:11.624Z,9.98
2018-04-15T00:27:11.631Z,9.96
2018-04-15T00:28:12.220Z,9.96
2018-04-15T00:29:11.553Z,9.90
2018-04-15T00:30:11.509Z,9.95
2018-04-15T00:31:11.481Z,9.96
2018-04-15T00:32:11.494Z,9.89
2018-04-15T00:33:12.241Z,9.93
2018-04-15T00:34:11.397Z,9.89
2018-04-15T00:35:11.372Z,9.92
2018-04-15T00:36:11.379Z,9.92
2018-04-15T00:37:12.219Z,9.90
2018-04-15T00:38:11.325Z,9.84
2018-04-15T00:39:11.370Z,9.88
2018-04-15T00:40:11.230Z,9.88
2018-04-15T00:41:11.205Z,9.90
2018-04-15T00:42:11.186Z,9.84
2018-04-15T00:43:11.189Z,9.85
2018-04-15T00:44:11.129Z,9.88
2018-04-15T00:45:11.096Z,9.80
2018-04-15T00:46:11.060Z,9.85
2018-04-15T00:47:11.032Z,9.84
2018-04-15T00:48:11.050Z,9.80
2018-04-15T00:49:10.977Z,9.85
2018-04-15T00:50:10.948Z,9.70
2018-04-15T00:51:10.928Z,9.81
2018-04-15T00:52:10.893Z,9.80
2018-04-15T00:53:10.915Z,9.66
2018-04-15T00:54:10.838Z,9.70
2018-04-15T00:55:10.808Z,9.67
2018-04-15T00:56:10.834Z,9.77
2018-04-15T00:57:10.755Z,9.74
2018-04-15T00:58:10.724Z,9.81
2018-04-15T00:59:10.696Z,9.85
2018-04-15T01:00:10.667Z,9.89
2018-04-15T01:01:10.691Z,9.84
2018-04-15T01:02:10.613Z,9.74
2018-04-15T01:03:10.591Z,9.67
2018-04-15T01:04:10.556Z,9.81
2018-04-15T01:05:10.531Z,9.67
2018-04-15T01:06:10.545Z,9.70
2018-04-15T01:07:10.471Z,9.71
2018-04-15T01:08:10.449Z,9.66
2018-04-15T01:09:10.416Z,9.80
2018-04-15T01:10:10.395Z,9.80
2018-04-15T01:11:10.392Z,9.77
2018-04-15T01:12:10.341Z,9.72
2018-04-15T01:13:10.303Z,9.71
2018-04-15T01:14:10.277Z,9.67
2018-04-15T01:15:10.285Z,9.71
2018-04-15T01:16:10.227Z,9.74
2018-04-15T01:17:10.232Z,9.66
2018-04-15T01:18:10.164Z,9.57
2018-04-15T01:19:10.145Z,9.64
2018-04-15T01:20:10.142Z,9.66
2018-04-15T01:21:10.724Z,9.57
2018-04-15T01:22:10.054Z,9.70
2018-04-15T01:23:10.022Z,9.64
2018-04-15T01:24:09.994Z,9.64
2018-04-15T01:25:10.108Z,9.62
2018-04-15T01:26:09.939Z,9.62
2018-04-15T01:27:09.911Z,9.52
2018-04-15T01:28:10.720Z,9.56
2018-04-15T01:29:09.856Z,9.62
2018-04-15T01:30:09.865Z,9.59
2018-04-15T01:31:09.803Z,9.66
2018-04-15T01:32:09.830Z,9.62
2018-04-15T01:33:09.739Z,9.62
2018-04-15T01:34:09.731Z,9.56
2018-04-15T01:35:09.690Z,9.62
2018-04-15T01:36:09.705Z,9.62
2018-04-15T01:37:09.661Z,9.59
2018-04-15T01:38:09.633Z,9.63
2018-04-15T01:39:10.230Z,9.57
2018-04-15T01:40:09.547Z,9.50
2018-04-15T01:41:09.526Z,9.62
2018-04-15T01:42:09.531Z,9.57
2018-04-15T01:43:09.460Z,9.63
2018-04-15T01:44:09.433Z,9.62
2018-04-15T01:45:09.404Z,9.60
2018-04-15T01:46:09.409Z,9.72
2018-04-15T01:47:09.350Z,9.59
2018-04-15T01:48:09.355Z,9.62
2018-04-15T01:49:09.287Z,9.62
2018-04-15T01:50:09.285Z,9.57
2018-04-15T01:51:09.234Z,9.59
2018-04-15T01:52:09.210Z,9.66
2018-04-15T01:53:09.212Z,9.63
2018-04-15T01:54:09.153Z,9.72
2018-04-15T01:55:09.115Z,9.70
2018-04-15T01:56:09.091Z,9.57
2018-04-15T01:57:09.073Z,9.67
2018-04-15T01:58:09.067Z,9.74
2018-04-15T01:59:09.003Z,9.71
2018-04-15T02:00:08.988Z,9.66
2018-04-15T02:01:08.949Z,9.77
2018-04-15T02:02:08.921Z,9.71
2018-04-15T02:03:08.926Z,9.72
2018-04-15T02:04:08.866Z,9.70
2018-04-15T02:05:08.879Z,9.64
2018-04-15T02:06:08.808Z,9.63
2018-04-15T02:07:08.785Z,9.67
2018-04-15T02:08:08.752Z,9.70
2018-04-15T02:09:08.757Z,9.66
2018-04-15T02:10:08.749Z,9.64
2018-04-15T02:11:08.672Z,9.64
2018-04-15T02:12:08.639Z,9.71
2018-04-15T02:13:08.619Z,9.75
2018-04-15T02:14:08.589Z,9.72
2018-04-15T02:15:08.601Z,9.64
2018-04-15T02:16:08.534Z,9.71
2018-04-15T02:17:08.501Z,9.72
2018-04-15T02:18:08.476Z,9.74
2018-04-15T02:19:08.442Z,9.66
2018-04-15T02:20:08.477Z,9.67
2018-04-15T02:21:08.395Z,9.71
2018-04-15T02:22:08.361Z,9.72
2018-04-15T02:23:08.333Z,9.74
2018-04-15T02:24:09.236Z,9.72
2018-04-15T02:25:08.308Z,9.72
2018-04-15T02:26:08.250Z,9.72
2018-04-15T02:27:08.224Z,9.71
2018-04-15T02:28:08.193Z,9.70
2018-04-15T02:29:08.228Z,9.70
2018-04-15T02:30:08.140Z,9.71
2018-04-15T02:31:08.116Z,9.78
2018-04-15T02:32:08.085Z,9.70
2018-04-15T02:33:08.053Z,9.71
2018-04-15T02:34:08.062Z,9.71
2018-04-15T02:35:08.010Z,9.70
2018-04-15T02:36:07.964Z,9.63
2018-04-15T02:37:07.940Z,9.75
2018-04-15T02:38:07.916Z,9.67
2018-04-15T02:39:07.918Z,9.71
2018-04-15T02:40:08.279Z,9.70
2018-04-15T02:41:07.876Z,9.74
2018-04-15T02:42:07.798Z,9.75
2018-04-15T02:43:07.777Z,9.72
2018-04-15T02:44:08.736Z,9.71
2018-04-15T02:45:07.751Z,9.80
2018-04-15T02:46:07.686Z,9.72
2018-04-15T02:47:07.707Z,9.82
2018-04-15T02:48:07.634Z,9.78
2018-04-15T02:49:07.607Z,9.84
2018-04-15T02:50:07.583Z,9.81
2018-04-15T02:51:07.551Z,9.78
2018-04-15T02:52:07.660Z,9.84
2018-04-15T02:53:07.492Z,9.88
2018-04-15T02:54:07.465Z,9.90
2018-04-15T02:55:07.436Z,9.88
2018-04-15T02:56:07.408Z,9.92
2018-04-15T02:57:07.416Z,9.90
2018-04-15T02:58:07.350Z,9.90
2018-04-15T02:59:07.318Z,9.88
2018-04-15T03:00:07.298Z,9.92
2018-04-15T03:01:07.298Z,9.99
2018-04-15T03:02:07.270Z,9.99
2018-04-15T03:03:07.210Z,9.90
2018-04-15T03:04:07.231Z,9.96
2018-04-15T03:05:07.155Z,9.96
2018-04-15T03:06:07.127Z,9.95
2018-04-15T03:07:07.136Z,9.93
2018-04-15T03:08:07.106Z,9.98
2018-04-15T03:09:07.061Z,9.92
2018-04-15T03:10:07.017Z,9.96
2018-04-15T03:11:06.989Z,9.95
2018-04-15T03:12:07.008Z,9.98
2018-04-15T03:13:06.931Z,9.96
2018-04-15T03:14:06.899Z,9.95
2018-04-15T03:15:06.872Z,10.02
2018-04-15T03:16:06.849Z,9.99
2018-04-15T03:17:07.292Z,9.99
2018-04-15T03:18:06.817Z,10.02
2018-04-15T03:19:06.765Z,10.02
2018-04-15T03:20:07.242Z,9.99
2018-04-15T03:21:06.707Z,10.00
2018-04-15T03:22:06.714Z,10.05
2018-04-15T03:23:07.237Z,10.03
2018-04-15T03:24:06.623Z,10.07
2018-04-15T03:25:06.600Z,10.03
2018-04-15T03:26:06.776Z,10.10
2018-04-15T03:27:06.573Z,9.98
2018-04-15T03:28:06.520Z,10.05
2018-04-15T03:29:06.786Z,10.15
2018-04-15T03:30:06.461Z,10.03
2018-04-15T03:31:06.429Z,10.11
2018-04-15T03:32:06.438Z,10.08
2018-04-15T03:33:06.417Z,10.07
2018-04-15T03:34:06.347Z,10.10
2018-04-15T03:35:06.356Z,9.96
2018-04-15T03:36:06.293Z,10.02
2018-04-15T03:37:06.264Z,10.08
2018-04-15T03:38:06.285Z,9.96
2018-04-15T03:39:06.207Z,10.05
2018-04-15T03:40:06.189Z,9.98
2018-04-15T03:41:06.742Z,10.08
2018-04-15T03:42:06.122Z,10.11
2018-04-15T03:43:06.131Z,10.13
2018-04-15T03:44:06.742Z,10.03
2018-04-15T03:45:06.042Z,10.02
2018-04-15T03:46:06.288Z,10.10
2018-04-15T03:47:05.990Z,10.08
2018-04-15T03:48:05.959Z,10.15
2018-04-15T03:49:06.740Z,10.10
2018-04-15T03:50:05.906Z,10.05
2018-04-15T03:51:06.280Z,10.07
2018-04-15T03:52:05.888Z,10.02
2018-04-15T03:53:05.823Z,10.10
2018-04-15T03:54:05.794Z,10.11
2018-04-15T03:55:05.802Z,10.13
2018-04-15T03:56:06.241Z,9.98
2018-04-15T03:57:05.759Z,10.08
2018-04-15T03:58:05.683Z,10.08
2018-04-15T03:59:05.661Z,10.05
2018-04-15T04:00:05.630Z,10.05
2018-04-15T04:01:06.241Z,9.96
2018-04-15T04:02:05.610Z,10.05
2018-04-15T04:03:05.546Z,10.07
2018-04-15T04:04:06.242Z,10.03
2018-04-15T04:05:05.491Z,10.03
2018-04-15T04:06:05.791Z,9.99
2018-04-15T04:07:05.487Z,10.00
2018-04-15T04:08:05.408Z,9.98
2018-04-15T04:09:06.245Z,9.93
2018-04-15T04:10:05.354Z,9.99
2018-04-15T04:11:05.337Z,10.02
2018-04-15T04:12:05.799Z,10.05
2018-04-15T04:13:05.279Z,9.99
2018-04-15T04:14:05.743Z,10.00
2018-04-15T04:15:05.214Z,10.02
2018-04-15T04:16:05.183Z,10.02
2018-04-15T04:17:05.299Z,10.10
2018-04-15T04:18:05.169Z,10.08
2018-04-15T04:19:05.743Z,10.08
2018-04-15T04:20:05.070Z,10.07
2018-04-15T04:21:05.051Z,10.07
2018-04-15T04:22:05.022Z,10.08
2018-04-15T04:23:05.294Z,10.13
2018-04-15T04:24:04.963Z,10.07
2018-04-15T04:25:04.969Z,10.08
2018-04-15T04:26:05.744Z,10.14
2018-04-15T04:27:04.880Z,10.15
2018-04-15T04:28:04.854Z,10.13
2018-04-15T04:29:05.289Z,10.14
2018-04-15T04:30:04.797Z,10.15
2018-04-15T04:31:04.772Z,10.11
2018-04-15T04:32:04.747Z,10.15
2018-04-15T04:33:04.717Z,10.23
2018-04-15T04:34:04.785Z,10.21
2018-04-15T04:35:04.683Z,10.17
2018-04-15T04:36:04.675Z,10.17
2018-04-15T04:37:05.246Z,10.11
2018-04-15T04:38:05.255Z,10.08
2018-04-15T04:39:04.553Z,10.10
2018-04-15T04:40:04.524Z,10.11
2018-04-15T04:41:04.534Z,10.08
2018-04-15T04:42:05.242Z,10.08
2018-04-15T04:43:04.437Z,10.15
2018-04-15T04:44:05.255Z,10.15
2018-04-15T04:45:04.397Z,10.00
2018-04-15T04:46:04.396Z,10.14
2018-04-15T04:47:05.245Z,10.23
2018-04-15T04:48:04.308Z,10.08
2018-04-15T04:49:04.278Z,10.15
2018-04-15T04:50:05.248Z,10.17
2018-04-15T04:51:04.260Z,10.21
2018-04-15T04:52:04.190Z,10.29
2018-04-15T04:53:04.758Z,10.20
2018-04-15T04:54:04.171Z,10.25
2018-04-15T04:55:04.163Z,10.18
2018-04-15T04:56:04.743Z,10.20
2018-04-15T04:57:04.056Z,10.21
2018-04-15T04:58:04.066Z,10.21
2018-04-15T04:59:03.997Z,10.26
2018-04-15T05:00:03.976Z,10.29
2018-04-15T05:01:04.766Z,10.31
2018-04-15T05:02:03.915Z,10.26
2018-04-15T05:03:03.936Z,10.31
2018-04-15T05:04:03.864Z,10.29
2018-04-15T05:05:04.748Z,10.25
2018-04-15T05:06:03.839Z,10.25
2018-04-15T05:07:03.778Z,10.38
2018-04-15T05:08:03.750Z,10.31
2018-04-15T05:09:03.733Z,10.25
2018-04-15T05:10:04.254Z,10.28
2018-04-15T05:11:06.681Z,10.33
2018-04-15T05:12:03.657Z,10.35
2018-04-15T05:13:04.247Z,10.26
2018-04-15T05:14:03.588Z,10.38
2018-04-15T05:15:03.560Z,10.32
2018-04-15T05:16:03.577Z,10.29
2018-04-15T05:17:03.510Z,10.26
2018-04-15T05:18:18.282Z,10.29
2018-04-15T05:19:03.450Z,10.38
2018-04-15T05:20:03.423Z,10.42
2018-04-15T05:21:03.457Z,10.47
2018-04-15T05:22:03.378Z,10.54
2018-04-15T05:23:03.340Z,10.47
2018-04-15T05:24:03.328Z,10.67
2018-04-15T05:25:03.336Z,10.55
2018-04-15T05:26:03.291Z,10.65
2018-04-15T05:27:03.275Z,10.67
2018-04-15T05:28:03.250Z,10.70
2018-04-15T05:29:03.184Z,10.73
2018-04-15T05:30:03.158Z,10.87
2018-04-15T05:31:03.121Z,10.88
2018-04-15T05:32:03.133Z,10.88
2018-04-15T05:33:03.128Z,10.91
2018-04-15T05:34:03.095Z,10.94
2018-04-15T05:35:03.033Z,11.05
2018-04-15T05:36:02.998Z,10.95
2018-04-15T05:37:02.963Z,11.05
2018-04-15T05:38:03.760Z,11.10
2018-04-15T05:39:02.953Z,11.16
2018-04-15T05:40:02.889Z,11.06
2018-04-15T05:41:02.863Z,11.13
2018-04-15T05:42:02.880Z,11.26
2018-04-15T05:43:02.824Z,11.23
2018-04-15T05:44:02.773Z,11.31
2018-04-15T05:45:02.755Z,11.28
2018-04-15T05:46:02.726Z,11.35
2018-04-15T05:47:02.734Z,11.49
2018-04-15T05:48:03.251Z,11.53
2018-04-15T05:49:02.646Z,11.56
2018-04-15T05:50:02.633Z,11.59
2018-04-15T05:51:02.590Z,11.59
2018-04-15T05:52:02.600Z,11.60
2018-04-15T05:53:02.537Z,11.57
2018-04-15T05:54:02.521Z,11.56
2018-04-15T05:55:02.484Z,11.67
2018-04-15T05:56:02.519Z,11.81
2018-04-15T05:57:02.430Z,11.89
2018-04-15T05:58:05.252Z,11.91
2018-04-15T05:59:02.382Z,12.03
2018-04-15T06:00:02.360Z,12.13
2018-04-15T06:01:02.368Z,12.18
2018-04-15T06:02:02.307Z,12.20
2018-04-15T06:03:02.320Z,12.18
2018-04-15T06:04:02.260Z,12.28
2018-04-15T06:05:02.229Z,12.33
2018-04-15T06:06:02.230Z,12.37
2018-04-15T06:07:02.187Z,12.43
2018-04-15T06:08:02.151Z,12.53
2018-04-15T06:09:02.120Z,12.53
2018-04-15T06:10:02.102Z,12.63
2018-04-15T06:11:02.110Z,12.69
2018-04-15T06:12:02.039Z,12.84
2018-04-15T06:13:02.020Z,12.86
2018-04-15T06:14:01.995Z,12.88
2018-04-15T06:15:01.971Z,12.91
2018-04-15T06:16:01.978Z,13.01
2018-04-15T06:17:01.916Z,13.11
2018-04-15T06:18:01.888Z,13.11
2018-04-15T06:19:02.762Z,13.17
2018-04-15T06:20:01.879Z,13.19
2018-04-15T06:21:01.817Z,13.24
2018-04-15T06:22:01.786Z,13.28
2018-04-15T06:23:01.762Z,13.25
2018-04-15T06:24:01.739Z,13.39
2018-04-15T06:25:01.752Z,13.50
2018-04-15T06:26:01.696Z,13.55
2018-04-15T06:27:01.665Z,13.65
2018-04-15T06:28:01.642Z,13.68
2018-04-15T06:29:01.615Z,13.72
2018-04-15T06:30:01.622Z,13.78
2018-04-15T06:31:01.574Z,13.88
2018-04-15T06:32:01.544Z,13.87
2018-04-15T06:33:01.597Z,13.90
2018-04-15T06:34:02.258Z,13.94
2018-04-15T06:35:01.462Z,13.84
2018-04-15T06:36:01.439Z,14.01
2018-04-15T06:37:01.415Z,13.94
2018-04-15T06:38:01.456Z,13.76
2018-04-15T06:39:01.369Z,13.86
2018-04-15T06:40:01.343Z,13.73
2018-04-15T06:41:01.318Z,13.68
2018-04-15T06:42:01.299Z,13.72
2018-04-15T06:43:01.313Z,13.81
2018-04-15T06:44:01.246Z,13.86
2018-04-15T06:45:01.229Z,13.83
2018-04-15T06:46:01.199Z,13.84
2018-04-15T06:47:01.173Z,13.83
2018-04-15T06:48:01.195Z,13.99
2018-04-15T06:49:01.141Z,13.95
2018-04-15T06:50:01.096Z,13.95
2018-04-15T06:51:01.071Z,13.97
2018-04-15T06:52:01.765Z,13.99
2018-04-15T06:53:01.059Z,13.99
2018-04-15T06:54:00.997Z,13.99
2018-04-15T06:55:01.022Z,14.11
2018-04-15T06:56:00.950Z,14.19
2018-04-15T06:57:00.938Z,14.19
2018-04-15T06:58:00.908Z,14.21
2018-04-15T06:59:00.880Z,14.21
2018-04-15T07:00:00.897Z,14.31
2018-04-15T07:01:00.833Z,14.38
2018-04-15T07:02:00.845Z,14.38
2018-04-15T07:03:00.786Z,14.42
2018-04-15T07:04:00.764Z,14.49
2018-04-15T07:05:00.782Z,14.57
2018-04-15T07:06:00.711Z,14.66
2018-04-15T07:07:00.685Z,14.66
2018-04-15T07:08:00.665Z,14.67
2018-04-15T07:09:00.688Z,14.82
2018-04-15T07:10:00.621Z,14.71
2018-04-15T07:11:00.594Z,14.93
2018-04-15T07:12:00.590Z,14.93
2018-04-15T07:13:00.555Z,14.97
2018-04-15T07:14:00.559Z,14.93
2018-04-15T07:15:01.170Z,15.05
2018-04-15T07:16:00.524Z,14.97
2018-04-15T07:17:00.457Z,15.05
2018-04-15T07:18:00.432Z,15.04
2018-04-15T07:19:00.407Z,15.08
2018-04-15T07:20:00.383Z,15.12
2018-04-15T07:21:00.418Z,15.07
2018-04-15T07:22:00.418Z,15.02
2018-04-15T07:23:00.315Z,15.12
2018-04-15T07:24:00.299Z,15.04
2018-04-15T07:25:00.271Z,15.12
2018-04-15T07:26:00.243Z,15.13
2018-04-15T07:27:00.290Z,15.13
2018-04-15T07:28:00.250Z,15.10
2018-04-15T07:29:00.175Z,15.05
2018-04-15T07:30:00.160Z,15.12
2018-04-15T07:31:00.124Z,15.16
2018-04-15T07:32:00.150Z,15.10
2018-04-15T07:33:00.081Z,15.00
2018-04-15T07:34:00.053Z,14.97
2018-04-15T07:35:00.034Z,15.07
2018-04-15T07:36:00.024Z,15.30
2018-04-15T07:37:00.018Z,15.30
2018-04-15T07:37:59.964Z,15.44
2018-04-15T07:38:59.940Z,15.45
2018-04-15T07:39:59.985Z,15.59
2018-04-15T07:40:59.896Z,15.68
2018-04-15T07:41:59.919Z,15.62
2018-04-15T07:42:59.847Z,15.52
2018-04-15T07:43:59.871Z,15.59
2018-04-15T07:44:59.799Z,15.59
2018-04-15T07:45:59.776Z,15.59
2018-04-15T07:46:59.762Z,15.51
2018-04-15T07:47:59.732Z,15.49
2018-04-15T07:48:59.736Z,15.47
2018-04-15T07:49:59.681Z,15.43
2018-04-15T07:50:59.820Z,15.47
2018-04-15T07:51:59.653Z,15.49
2018-04-15T07:52:59.613Z,15.47
2018-04-15T07:53:59.590Z,15.55
2018-04-15T07:54:59.575Z,15.51
2018-04-15T07:55:59.595Z,15.47
2018-04-15T07:56:59.520Z,15.45
2018-04-15T07:57:59.539Z,15.45
2018-04-15T07:58:59.479Z,15.41
2018-04-15T07:59:59.452Z,15.45
2018-04-15T08:00:59.485Z,15.49
2018-04-15T08:01:59.416Z,15.45
2018-04-15T08:02:59.387Z,15.34
2018-04-15T08:04:00.297Z,15.37
2018-04-15T08:04:59.338Z,15.37
2018-04-15T08:05:59.359Z,15.41
2018-04-15T08:07:06.190Z,15.30
2018-04-15T08:07:59.264Z,15.38
2018-04-15T08:08:59.286Z,15.49
2018-04-15T08:09:59.219Z,15.51
2018-04-15T08:10:59.224Z,15.58
2018-04-15T08:11:59.175Z,15.49
2018-04-15T08:12:59.155Z,15.63
2018-04-15T08:13:59.125Z,15.74
2018-04-15T08:14:59.103Z,15.73
2018-04-15T08:15:59.109Z,15.92
2018-04-15T08:16:59.056Z,15.84
2018-04-15T08:17:59.030Z,15.95
2018-04-15T08:18:59.004Z,15.99
2018-04-15T08:19:58.979Z,16.08
2018-04-15T08:20:59.338Z,16.10
2018-04-15T08:21:58.936Z,16.13
2018-04-15T08:22:58.912Z,16.16
2018-04-15T08:23:58.890Z,16.18
2018-04-15T08:24:58.868Z,16.22
2018-04-15T08:25:58.880Z,16.27
2018-04-15T08:26:58.831Z,16.32
2018-04-15T08:27:58.797Z,16.34
2018-04-15T08:28:58.773Z,16.37
2018-04-15T08:29:58.789Z,16.40
2018-04-15T08:30:58.724Z,16.44
2018-04-15T08:31:58.721Z,16.47
2018-04-15T08:32:59.282Z,16.52
2018-04-15T08:33:58.665Z,16.58
2018-04-15T08:34:58.802Z,16.58
2018-04-15T08:35:58.607Z,16.73
2018-04-15T08:36:58.589Z,16.65
2018-04-15T08:37:58.563Z,16.76
2018-04-15T08:38:58.856Z,16.76
2018-04-15T08:39:58.514Z,16.74
2018-04-15T08:40:58.496Z,16.76
2018-04-15T08:41:58.470Z,16.80
2018-04-15T08:42:58.448Z,16.77
2018-04-15T08:43:58.854Z,16.76
2018-04-15T08:44:58.403Z,16.74
2018-04-15T08:45:58.383Z,16.77
2018-04-15T08:46:58.358Z,16.80
2018-04-15T08:47:58.370Z,16.76
2018-04-15T08:48:59.293Z,16.80
2018-04-15T08:49:58.321Z,16.84
2018-04-15T08:50:58.301Z,16.84
2018-04-15T08:51:58.243Z,16.94
2018-04-15T08:52:58.216Z,17.07
2018-04-15T08:53:58.791Z,17.10
2018-04-15T08:54:58.202Z,17.18
2018-04-15T08:55:58.159Z,17.15
2018-04-15T08:56:58.159Z,17.17
2018-04-15T08:57:58.102Z,17.27
2018-04-15T08:58:58.789Z,17.28
2018-04-15T08:59:58.092Z,17.32
2018-04-15T09:00:58.039Z,17.38
2018-04-15T09:01:58.017Z,17.32
2018-04-15T09:02:57.991Z,17.39
2018-04-15T09:03:58.787Z,17.46
2018-04-15T09:04:57.984Z,17.47
2018-04-15T09:05:57.971Z,17.52
2018-04-15T09:06:57.899Z,17.54
2018-04-15T09:07:58.786Z,17.49
2018-04-15T09:08:57.856Z,17.54
2018-04-15T09:09:57.828Z,17.58
2018-04-15T09:10:57.847Z,17.55
2018-04-15T09:11:57.831Z,17.63
2018-04-15T09:12:58.293Z,17.76
2018-04-15T09:13:57.740Z,17.77
2018-04-15T09:14:57.719Z,17.81
2018-04-15T09:15:57.711Z,17.84
2018-04-15T09:16:57.723Z,17.87
2018-04-15T09:17:57.650Z,17.86
2018-04-15T09:18:57.642Z,17.95
2018-04-15T09:19:57.609Z,18.05
2018-04-15T09:20:57.585Z,18.02
2018-04-15T09:21:57.599Z,18.14
2018-04-15T09:22:57.685Z,18.06
2018-04-15T09:23:57.576Z,18.05
2018-04-15T09:24:57.497Z,18.16
2018-04-15T09:25:58.292Z,18.19
2018-04-15T09:26:57.451Z,18.19
2018-04-15T09:27:57.433Z,18.29
2018-04-15T09:28:57.850Z,18.34
2018-04-15T09:29:57.383Z,18.27
2018-04-15T09:30:57.362Z,18.36
2018-04-15T09:31:57.352Z,18.38
2018-04-15T09:32:57.357Z,18.35
2018-04-15T09:33:57.342Z,18.42
2018-04-15T09:34:57.282Z,18.51
2018-04-15T09:35:57.253Z,18.47
2018-04-15T09:36:57.233Z,18.50
2018-04-15T09:37:57.266Z,18.49
2018-04-15T09:38:57.200Z,18.51
2018-04-15T09:39:57.166Z,18.61
2018-04-15T09:40:57.374Z,18.66
2018-04-15T09:41:57.132Z,18.66
2018-04-15T09:42:57.146Z,18.76
2018-04-15T09:43:57.087Z,18.75
2018-04-15T09:44:57.056Z,18.78
2018-04-15T09:45:57.794Z,18.78
2018-04-15T09:46:57.046Z,18.90
2018-04-15T09:47:57.029Z,18.96
2018-04-15T09:48:56.990Z,18.96
2018-04-15T09:49:56.951Z,19.05
2018-04-15T09:50:56.927Z,19.16
2018-04-15T09:51:56.906Z,19.13
2018-04-15T09:52:56.922Z,19.00
2018-04-15T09:53:56.862Z,19.05
2018-04-15T09:54:56.842Z,19.20
2018-04-15T09:55:56.820Z,19.32
2018-04-15T09:56:56.804Z,19.45
2018-04-15T09:57:56.844Z,19.50
2018-04-15T09:58:56.757Z,19.43
2018-04-15T09:59:56.736Z,19.63
2018-04-15T10:00:56.737Z,19.63
2018-04-15T10:01:56.730Z,19.82
2018-04-15T10:02:56.716Z,19.93
2018-04-15T10:03:56.654Z,20.02
2018-04-15T10:04:56.624Z,20.00
2018-04-15T10:05:56.646Z,19.97
2018-04-15T10:06:56.581Z,19.98
2018-04-15T10:07:56.564Z,19.93
2018-04-15T10:08:56.611Z,20.05
2018-04-15T10:09:56.522Z,19.98
2018-04-15T10:10:56.854Z,20.04
2018-04-15T10:11:56.484Z,19.86
2018-04-15T10:12:56.460Z,20.00
2018-04-15T10:13:56.469Z,19.98
2018-04-15T10:14:56.418Z,20.00
2018-04-15T10:15:56.848Z,19.98
2018-04-15T10:16:56.457Z,20.02
2018-04-15T10:17:56.365Z,19.92
2018-04-15T10:18:56.442Z,20.02
2018-04-15T10:19:56.312Z,20.01
2018-04-15T10:20:56.803Z,20.08
2018-04-15T10:21:56.269Z,20.11
2018-04-15T10:22:56.249Z,20.11
2018-04-15T10:23:56.283Z,20.10
2018-04-15T10:24:56.210Z,20.15
2018-04-15T10:25:56.804Z,20.11
2018-04-15T10:26:56.188Z,20.16
2018-04-15T10:27:56.146Z,20.23
2018-04-15T10:28:56.163Z,20.20
2018-04-15T10:29:56.152Z,20.15
2018-04-15T10:30:56.079Z,20.19
2018-04-15T10:31:56.067Z,20.25
2018-04-15T10:32:56.039Z,20.29
2018-04-15T10:33:56.060Z,20.29
2018-04-15T10:34:55.999Z,20.30
2018-04-15T10:35:56.100Z,20.34
2018-04-15T10:36:56.814Z,20.37
2018-04-15T10:37:55.940Z,20.38
2018-04-15T10:38:55.949Z,20.35
2018-04-15T10:39:55.900Z,20.44
2018-04-15T10:40:55.877Z,20.35
2018-04-15T10:41:56.812Z,20.34
2018-04-15T10:42:55.837Z,20.34
2018-04-15T10:43:55.838Z,20.34
2018-04-15T10:44:55.843Z,20.38
2018-04-15T10:45:55.775Z,20.35
2018-04-15T10:46:55.748Z,20.35
2018-04-15T10:47:55.734Z,20.38
2018-04-15T10:48:55.711Z,20.44
2018-04-15T10:49:55.748Z,20.49
2018-04-15T10:50:55.671Z,20.48
2018-04-15T10:51:55.650Z,20.41
2018-04-15T10:52:55.627Z,20.46
2018-04-15T10:53:55.602Z,20.49
2018-04-15T10:54:55.625Z,20.46
2018-04-15T10:55:55.611Z,20.42
2018-04-15T10:56:55.547Z,20.41
2018-04-15T10:57:55.527Z,20.46
2018-04-15T10:58:55.500Z,20.56
2018-04-15T10:59:55.520Z,20.48
2018-04-15T11:00:55.509Z,20.60
2018-04-15T11:01:55.445Z,20.64
2018-04-15T11:02:55.425Z,20.64
2018-04-15T11:03:55.402Z,20.72
2018-04-15T11:04:55.382Z,20.79
2018-04-15T11:05:55.392Z,20.79
2018-04-15T11:06:55.338Z,20.78
2018-04-15T11:07:55.317Z,20.78
2018-04-15T11:08:55.301Z,20.85
2018-04-15T11:09:55.281Z,20.85
2018-04-15T11:10:55.307Z,20.86
2018-04-15T11:11:55.240Z,20.85
2018-04-15T11:12:55.218Z,20.82
2018-04-15T11:13:55.234Z,20.78
2018-04-15T11:14:55.180Z,20.79
2018-04-15T11:15:55.188Z,20.79
2018-04-15T11:16:55.363Z,20.82
2018-04-15T11:17:55.114Z,20.83
2018-04-15T11:18:55.097Z,21.00
2018-04-15T11:19:55.079Z,20.98
2018-04-15T11:20:55.055Z,21.00
2018-04-15T11:21:55.081Z,20.94
2018-04-15T11:22:55.822Z,20.96
2018-04-15T11:23:54.989Z,20.98
2018-04-15T11:24:54.969Z,21.00
2018-04-15T11:25:54.957Z,20.96
2018-04-15T11:26:55.063Z,21.06
2018-04-15T11:27:54.916Z,21.06
2018-04-15T11:28:54.916Z,21.11
2018-04-15T11:29:54.870Z,21.09
2018-04-15T11:30:54.844Z,21.13
2018-04-15T11:31:54.881Z,21.09
2018-04-15T11:32:54.847Z,21.09
2018-04-15T11:33:54.792Z,21.13
2018-04-15T11:34:54.810Z,21.21
2018-04-15T11:35:54.748Z,21.21
2018-04-15T11:36:54.735Z,21.15
2018-04-15T11:37:54.756Z,21.19
2018-04-15T11:38:54.689Z,21.18
2018-04-15T11:39:54.663Z,21.30
2018-04-15T11:40:54.645Z,21.38
2018-04-15T11:41:54.627Z,21.41
2018-04-15T11:42:54.650Z,21.37
2018-04-15T11:43:54.583Z,21.52
2018-04-15T11:44:54.565Z,21.51
2018-04-15T11:45:55.323Z,21.46
2018-04-15T11:46:54.527Z,21.55
2018-04-15T11:47:54.540Z,21.53
2018-04-15T11:48:54.524Z,21.55
2018-04-15T11:49:54.470Z,21.55
2018-04-15T11:50:54.440Z,21.56
2018-04-15T11:51:54.428Z,21.64
2018-04-15T11:52:54.439Z,21.71
2018-04-15T11:53:54.392Z,21.64
2018-04-15T11:54:54.363Z,21.76
2018-04-15T11:55:54.345Z,21.70
2018-04-15T11:56:54.327Z,21.74
2018-04-15T11:57:54.357Z,21.80
2018-04-15T11:58:54.297Z,21.82
2018-04-15T11:59:54.317Z,21.78
2018-04-15T12:00:54.823Z,21.71
2018-04-15T12:01:54.295Z,21.80
2018-04-15T12:02:54.209Z,21.85
2018-04-15T12:03:54.234Z,21.82
2018-04-15T12:04:54.199Z,21.82
2018-04-15T12:05:54.829Z,21.74
2018-04-15T12:06:54.169Z,21.83
2018-04-15T12:07:54.108Z,21.73
2018-04-15T12:08:54.092Z,21.78
2018-04-15T12:09:54.075Z,21.83
2018-04-15T12:10:54.048Z,21.70
2018-04-15T12:11:54.094Z,21.77
2018-04-15T12:12:54.007Z,21.85
2018-04-15T12:13:53.994Z,21.90
2018-04-15T12:14:53.967Z,21.80
2018-04-15T12:15:53.949Z,21.86
2018-04-15T12:16:53.967Z,21.94
2018-04-15T12:17:53.918Z,21.97
2018-04-15T12:18:53.888Z,21.92
2018-04-15T12:19:53.901Z,21.90
2018-04-15T12:20:53.857Z,21.94
2018-04-15T12:21:53.878Z,21.92
2018-04-15T12:22:53.811Z,22.04
2018-04-15T12:23:53.798Z,22.05
2018-04-15T12:24:53.773Z,22.02
2018-04-15T12:25:53.779Z,22.09
2018-04-15T12:26:53.773Z,22.15
2018-04-15T12:27:54.240Z,22.11
2018-04-15T12:28:53.693Z,22.15
2018-04-15T12:29:53.708Z,22.22
2018-04-15T12:30:53.656Z,22.22
2018-04-15T12:31:53.672Z,22.11
2018-04-15T12:32:53.620Z,22.09
2018-04-15T12:33:53.603Z,22.15
2018-04-15T12:34:53.581Z,22.11
2018-04-15T12:35:53.625Z,22.26
2018-04-15T12:36:53.903Z,22.29
2018-04-15T12:37:53.552Z,22.27
2018-04-15T12:38:53.503Z,22.30
2018-04-15T12:39:53.482Z,22.14
2018-04-15T12:40:53.483Z,22.16
2018-04-15T12:41:53.442Z,22.16
2018-04-15T12:42:53.455Z,22.26
2018-04-15T12:43:53.403Z,22.38
2018-04-15T12:44:53.393Z,22.27
2018-04-15T12:45:54.338Z,22.39
2018-04-15T12:46:53.350Z,22.34
2018-04-15T12:47:53.360Z,22.38
2018-04-15T12:48:53.338Z,22.51
2018-04-15T12:49:53.839Z,22.49
2018-04-15T12:50:53.273Z,22.52
2018-04-15T12:51:53.244Z,22.48
2018-04-15T12:52:53.239Z,22.48
2018-04-15T12:53:53.288Z,22.52
2018-04-15T12:54:53.843Z,22.48
2018-04-15T12:55:53.167Z,22.44
2018-04-15T12:56:53.159Z,22.59
2018-04-15T12:57:53.139Z,22.63